sensor_id;sensor_type;location;lat;lon;timestamp;P1;durP1;ratioP1;P2;durP2;ratioP2
7215;SDS011;3649;48.798;9.798;2023-10-09T00:02:09;10.17;;;5.07;;
7215;SDS011;3649;48.798;9.798;2023-10-09T00:04:37;11.13;;;5.73;;
7215;SDS011;3649;48.798;9.798;2023-10-09T00:07:08;7.77;;;5.53;;
7215;SDS011;3649;48.798;9.798;2023-10-09T00:09:38;8.47;;;5.20;;
7215;SDS011;3649;48.798;9.798;2023-10-09T00:12:19;10.27;;;5.20;;
7215;SDS011;3649;48.798;9.798;2023-10-09T00:14:50;8.70;;;5.47;;
7215;SDS011;3649;48.798;9.798;2023-10-09T00:17:22;8.47;;;5.20;;
7215;SDS011;3649;48.798;9.798;2023-10-09T00:19:50;13.67;;;5.70;;
7215;SDS011;3649;48.798;9.798;2023-10-09T00:22:26;8.83;;;6.37;;
7215;SDS011;3649;48.798;9.798;2023-10-09T00:24:56;9.27;;;5.47;;
7215;SDS011;3649;48.798;9.798;2023-10-09T00:30:09;9.80;;;5.30;;
7215;SDS011;3649;48.798;9.798;2023-10-09T00:32:42;10.23;;;5.63;;
7215;SDS011;3649;48.798;9.798;2023-10-09T00:35:17;9.13;;;4.97;;
7215;SDS011;3649;48.798;9.798;2023-10-09T00:38:04;7.80;;;5.73;;
7215;SDS011;3649;48.798;9.798;2023-10-09T00:40:46;9.27;;;5.47;;
7215;SDS011;3649;48.798;9.798;2023-10-09T00:43:23;7.27;;;5.33;;
7215;SDS011;3649;48.798;9.798;2023-10-09T00:45:55;12.13;;;5.60;;
7215;SDS011;3649;48.798;9.798;2023-10-09T00:48:29;7.97;;;5.60;;
7215;SDS011;3649;48.798;9.798;2023-10-09T00:51:06;8.73;;;5.20;;
7215;SDS011;3649;48.798;9.798;2023-10-09T00:53:54;6.93;;;5.70;;
7215;SDS011;3649;48.798;9.798;2023-10-09T00:56:33;9.77;;;6.07;;
7215;SDS011;3649;48.798;9.798;2023-10-09T00:59:13;8.90;;;5.33;;
7215;SDS011;3649;48.798;9.798;2023-10-09T01:01:42;10.47;;;5.77;;
7215;SDS011;3649;48.798;9.798;2023-10-09T01:04:30;8.03;;;5.20;;
7215;SDS011;3649;48.798;9.798;2023-10-09T01:07:03;9.00;;;5.80;;
7215;SDS011;3649;48.798;9.798;2023-10-09T01:09:52;7.70;;;5.57;;
7215;SDS011;3649;48.798;9.798;2023-10-09T01:12:21;8.73;;;5.40;;
7215;SDS011;3649;48.798;9.798;2023-10-09T01:14:48;10.00;;;6.23;;
7215;SDS011;3649;48.798;9.798;2023-10-09T01:17:22;9.30;;;6.40;;
7215;SDS011;3649;48.798;9.798;2023-10-09T01:20:11;10.73;;;6.50;;
7215;SDS011;3649;48.798;9.798;2023-10-09T01:22:43;10.57;;;6.37;;
7215;SDS011;3649;48.798;9.798;2023-10-09T01:25:10;8.43;;;5.90;;
7215;SDS011;3649;48.798;9.798;2023-10-09T01:27:37;8.40;;;5.60;;
7215;SDS011;3649;48.798;9.798;2023-10-09T01:30:06;6.67;;;5.50;;
7215;SDS011;3649;48.798;9.798;2023-10-09T01:32:40;7.57;;;5.40;;
7215;SDS011;3649;48.798;9.798;2023-10-09T01:35:10;9.83;;;5.70;;
7215;SDS011;3649;48.798;9.798;2023-10-09T01:37:46;9.10;;;5.93;;
7215;SDS011;3649;48.798;9.798;2023-10-09T01:40:17;9.43;;;6.03;;
7215;SDS011;3649;48.798;9.798;2023-10-09T01:43:03;9.50;;;6.40;;
7215;SDS011;3649;48.798;9.798;2023-10-09T01:45:30;10.63;;;5.53;;
7215;SDS011;3649;48.798;9.798;2023-10-09T01:48:08;8.70;;;5.50;;
7215;SDS011;3649;48.798;9.798;2023-10-09T01:50:37;8.90;;;6.20;;
7215;SDS011;3649;48.798;9.798;2023-10-09T01:53:08;8.77;;;5.60;;
7215;SDS011;3649;48.798;9.798;2023-10-09T01:55:35;8.57;;;6.33;;
7215;SDS011;3649;48.798;9.798;2023-10-09T01:58:07;11.10;;;6.10;;
7215;SDS011;3649;48.798;9.798;2023-10-09T02:00:53;9.83;;;5.47;;
7215;SDS011;3649;48.798;9.798;2023-10-09T02:03:22;8.20;;;5.50;;
7215;SDS011;3649;48.798;9.798;2023-10-09T02:05:55;8.17;;;5.60;;
7215;SDS011;3649;48.798;9.798;2023-10-09T02:08:26;8.57;;;5.50;;
7215;SDS011;3649;48.798;9.798;2023-10-09T02:10:54;8.30;;;5.10;;
7215;SDS011;3649;48.798;9.798;2023-10-09T02:13:23;9.03;;;5.67;;
7215;SDS011;3649;48.798;9.798;2023-10-09T02:15:56;8.77;;;4.83;;
7215;SDS011;3649;48.798;9.798;2023-10-09T02:18:39;11.20;;;5.97;;
7215;SDS011;3649;48.798;9.798;2023-10-09T02:21:19;10.43;;;5.70;;
7215;SDS011;3649;48.798;9.798;2023-10-09T02:24:05;9.47;;;6.03;;
7215;SDS011;3649;48.798;9.798;2023-10-09T02:26:35;9.97;;;6.30;;
7215;SDS011;3649;48.798;9.798;2023-10-09T02:29:05;8.13;;;6.17;;
7215;SDS011;3649;48.798;9.798;2023-10-09T02:31:32;8.90;;;6.10;;
7215;SDS011;3649;48.798;9.798;2023-10-09T02:34:07;11.83;;;6.20;;
7215;SDS011;3649;48.798;9.798;2023-10-09T02:36:37;9.30;;;5.67;;
7215;SDS011;3649;48.798;9.798;2023-10-09T02:39:08;8.77;;;5.77;;
7215;SDS011;3649;48.798;9.798;2023-10-09T02:41:50;6.43;;;5.47;;
7215;SDS011;3649;48.798;9.798;2023-10-09T02:44:28;10.67;;;5.83;;
7215;SDS011;3649;48.798;9.798;2023-10-09T02:47:06;10.93;;;6.03;;
7215;SDS011;3649;48.798;9.798;2023-10-09T02:49:44;8.07;;;5.53;;
7215;SDS011;3649;48.798;9.798;2023-10-09T02:52:14;9.33;;;5.83;;
7215;SDS011;3649;48.798;9.798;2023-10-09T02:54:45;10.07;;;6.70;;
7215;SDS011;3649;48.798;9.798;2023-10-09T02:57:18;8.80;;;5.90;;
7215;SDS011;3649;48.798;9.798;2023-10-09T02:59:50;9.27;;;5.77;;
7215;SDS011;3649;48.798;9.798;2023-10-09T03:02:18;10.00;;;6.63;;
7215;SDS011;3649;48.798;9.798;2023-10-09T03:04:45;8.13;;;5.87;;
7215;SDS011;3649;48.798;9.798;2023-10-09T03:07:12;10.83;;;6.27;;
7215;SDS011;3649;48.798;9.798;2023-10-09T03:09:40;15.30;;;6.43;;
7215;SDS011;3649;48.798;9.798;2023-10-09T03:12:07;9.17;;;6.37;;
7215;SDS011;3649;48.798;9.798;2023-10-09T03:14:39;8.90;;;5.80;;
7215;SDS011;3649;48.798;9.798;2023-10-09T03:17:08;9.50;;;6.13;;
7215;SDS011;3649;48.798;9.798;2023-10-09T03:19:39;11.87;;;7.17;;
7215;SDS011;3649;48.798;9.798;2023-10-09T03:22:06;13.53;;;6.67;;
7215;SDS011;3649;48.798;9.798;2023-10-09T03:24:38;9.60;;;5.60;;
7215;SDS011;3649;48.798;9.798;2023-10-09T03:27:16;12.87;;;6.33;;
7215;SDS011;3649;48.798;9.798;2023-10-09T03:29:44;8.83;;;6.83;;
7215;SDS011;3649;48.798;9.798;2023-10-09T03:32:16;9.03;;;6.27;;
7215;SDS011;3649;48.798;9.798;2023-10-09T03:34:43;10.10;;;6.13;;
7215;SDS011;3649;48.798;9.798;2023-10-09T03:37:10;11.47;;;6.73;;
7215;SDS011;3649;48.798;9.798;2023-10-09T03:39:48;9.40;;;5.90;;
7215;SDS011;3649;48.798;9.798;2023-10-09T03:42:21;10.63;;;6.07;;
7215;SDS011;3649;48.798;9.798;2023-10-09T03:44:49;12.87;;;6.43;;
7215;SDS011;3649;48.798;9.798;2023-10-09T03:47:20;8.77;;;5.60;;
7215;SDS011;3649;48.798;9.798;2023-10-09T03:49:51;10.20;;;6.27;;
7215;SDS011;3649;48.798;9.798;2023-10-09T03:52:20;9.97;;;6.40;;
7215;SDS011;3649;48.798;9.798;2023-10-09T03:54:49;8.60;;;6.40;;
7215;SDS011;3649;48.798;9.798;2023-10-09T03:57:16;9.90;;;5.83;;
7215;SDS011;3649;48.798;9.798;2023-10-09T03:59:47;9.53;;;5.97;;
7215;SDS011;3649;48.798;9.798;2023-10-09T04:02:14;9.87;;;6.00;;
7215;SDS011;3649;48.798;9.798;2023-10-09T04:04:43;8.47;;;5.63;;
7215;SDS011;3649;48.798;9.798;2023-10-09T04:07:14;10.60;;;6.90;;
7215;SDS011;3649;48.798;9.798;2023-10-09T04:09:44;9.33;;;5.87;;
7215;SDS011;3649;48.798;9.798;2023-10-09T04:12:14;9.23;;;5.70;;
7215;SDS011;3649;48.798;9.798;2023-10-09T04:14:51;7.90;;;5.87;;
7215;SDS011;3649;48.798;9.798;2023-10-09T04:17:24;11.93;;;5.47;;
7215;SDS011;3649;48.798;9.798;2023-10-09T04:19:51;7.97;;;5.97;;
7215;SDS011;3649;48.798;9.798;2023-10-09T04:22:50;10.40;;;6.10;;
7215;SDS011;3649;48.798;9.798;2023-10-09T04:25:18;10.53;;;6.07;;
7215;SDS011;3649;48.798;9.798;2023-10-09T04:28:08;10.03;;;5.53;;
7215;SDS011;3649;48.798;9.798;2023-10-09T04:30:38;8.00;;;5.53;;
7215;SDS011;3649;48.798;9.798;2023-10-09T04:33:32;10.70;;;6.50;;
7215;SDS011;3649;48.798;9.798;2023-10-09T04:36:02;9.17;;;6.00;;
7215;SDS011;3649;48.798;9.798;2023-10-09T04:39:02;8.83;;;5.83;;
7215;SDS011;3649;48.798;9.798;2023-10-09T04:41:32;8.20;;;5.73;;
7215;SDS011;3649;48.798;9.798;2023-10-09T04:44:19;12.30;;;6.20;;
7215;SDS011;3649;48.798;9.798;2023-10-09T04:46:50;11.80;;;6.33;;
7215;SDS011;3649;48.798;9.798;2023-10-09T04:49:40;9.87;;;6.50;;
7215;SDS011;3649;48.798;9.798;2023-10-09T04:52:16;9.50;;;5.67;;
7215;SDS011;3649;48.798;9.798;2023-10-09T04:54:57;8.47;;;5.33;;
7215;SDS011;3649;48.798;9.798;2023-10-09T04:57:43;11.43;;;5.83;;
7215;SDS011;3649;48.798;9.798;2023-10-09T05:02:54;9.53;;;5.93;;
7215;SDS011;3649;48.798;9.798;2023-10-09T05:05:37;8.30;;;5.23;;
7215;SDS011;3649;48.798;9.798;2023-10-09T05:08:09;11.63;;;5.87;;
7215;SDS011;3649;48.798;9.798;2023-10-09T05:10:58;10.73;;;6.23;;
7215;SDS011;3649;48.798;9.798;2023-10-09T05:13:36;9.30;;;5.97;;
7215;SDS011;3649;48.798;9.798;2023-10-09T05:16:17;13.13;;;5.70;;
7215;SDS011;3649;48.798;9.798;2023-10-09T05:18:46;8.93;;;6.03;;
7215;SDS011;3649;48.798;9.798;2023-10-09T05:21:30;10.83;;;5.80;;
7215;SDS011;3649;48.798;9.798;2023-10-09T05:24:21;10.77;;;5.90;;
7215;SDS011;3649;48.798;9.798;2023-10-09T05:26:50;8.93;;;5.60;;
7215;SDS011;3649;48.798;9.798;2023-10-09T05:29:21;9.97;;;5.90;;
7215;SDS011;3649;48.798;9.798;2023-10-09T05:31:55;16.30;;;6.80;;
7215;SDS011;3649;48.798;9.798;2023-10-09T05:34:31;11.30;;;6.10;;
7215;SDS011;3649;48.798;9.798;2023-10-09T05:37:17;12.23;;;5.30;;
7215;SDS011;3649;48.798;9.798;2023-10-09T05:39:56;9.23;;;5.23;;
7215;SDS011;3649;48.798;9.798;2023-10-09T05:42:30;12.53;;;6.13;;
7215;SDS011;3649;48.798;9.798;2023-10-09T05:45:04;12.60;;;6.20;;
7215;SDS011;3649;48.798;9.798;2023-10-09T05:47:44;16.60;;;7.00;;
7215;SDS011;3649;48.798;9.798;2023-10-09T05:50:34;9.70;;;5.77;;
7215;SDS011;3649;48.798;9.798;2023-10-09T05:53:04;11.37;;;6.10;;
7215;SDS011;3649;48.798;9.798;2023-10-09T05:55:53;20.23;;;6.57;;
7215;SDS011;3649;48.798;9.798;2023-10-09T05:58:39;12.50;;;6.00;;
7215;SDS011;3649;48.798;9.798;2023-10-09T06:01:28;14.40;;;6.67;;
7215;SDS011;3649;48.798;9.798;2023-10-09T06:04:14;18.00;;;7.80;;
7215;SDS011;3649;48.798;9.798;2023-10-09T06:06:45;20.60;;;8.73;;
7215;SDS011;3649;48.798;9.798;2023-10-09T06:09:13;15.07;;;7.20;;
7215;SDS011;3649;48.798;9.798;2023-10-09T06:11:42;13.30;;;6.97;;
7215;SDS011;3649;48.798;9.798;2023-10-09T06:14:21;14.20;;;7.20;;
7215;SDS011;3649;48.798;9.798;2023-10-09T06:16:56;10.73;;;5.90;;
7215;SDS011;3649;48.798;9.798;2023-10-09T06:19:24;12.30;;;6.07;;
7215;SDS011;3649;48.798;9.798;2023-10-09T06:21:55;11.17;;;6.20;;
7215;SDS011;3649;48.798;9.798;2023-10-09T06:24:39;11.97;;;5.43;;
7215;SDS011;3649;48.798;9.798;2023-10-09T06:27:21;14.17;;;6.13;;
7215;SDS011;3649;48.798;9.798;2023-10-09T06:29:58;11.90;;;5.67;;
7215;SDS011;3649;48.798;9.798;2023-10-09T06:32:43;9.67;;;6.10;;
7215;SDS011;3649;48.798;9.798;2023-10-09T06:35:18;11.77;;;6.23;;
7215;SDS011;3649;48.798;9.798;2023-10-09T06:37:49;15.33;;;6.63;;
7215;SDS011;3649;48.798;9.798;2023-10-09T06:43:16;16.83;;;7.57;;
7215;SDS011;3649;48.798;9.798;2023-10-09T06:45:44;15.23;;;7.40;;
7215;SDS011;3649;48.798;9.798;2023-10-09T06:48:12;14.17;;;6.53;;
7215;SDS011;3649;48.798;9.798;2023-10-09T06:51:01;14.07;;;6.07;;
7215;SDS011;3649;48.798;9.798;2023-10-09T06:53:48;17.30;;;6.37;;
7215;SDS011;3649;48.798;9.798;2023-10-09T06:56:27;11.70;;;5.77;;
7215;SDS011;3649;48.798;9.798;2023-10-09T06:58:58;17.23;;;6.50;;
7215;SDS011;3649;48.798;9.798;2023-10-09T07:01:50;15.03;;;6.43;;
7215;SDS011;3649;48.798;9.798;2023-10-09T07:04:36;16.00;;;6.87;;
7215;SDS011;3649;48.798;9.798;2023-10-09T07:07:03;17.20;;;7.00;;
7215;SDS011;3649;48.798;9.798;2023-10-09T07:09:39;15.37;;;6.60;;
7215;SDS011;3649;48.798;9.798;2023-10-09T07:12:10;16.00;;;6.77;;
7215;SDS011;3649;48.798;9.798;2023-10-09T07:14:46;16.70;;;6.20;;
7215;SDS011;3649;48.798;9.798;2023-10-09T07:17:13;14.73;;;5.70;;
7215;SDS011;3649;48.798;9.798;2023-10-09T07:19:54;15.97;;;6.70;;
7215;SDS011;3649;48.798;9.798;2023-10-09T07:22:22;16.67;;;6.77;;
7215;SDS011;3649;48.798;9.798;2023-10-09T07:24:49;12.33;;;6.63;;
7215;SDS011;3649;48.798;9.798;2023-10-09T07:27:25;13.90;;;6.63;;
7215;SDS011;3649;48.798;9.798;2023-10-09T07:30:13;19.50;;;7.03;;
7215;SDS011;3649;48.798;9.798;2023-10-09T07:32:58;15.80;;;6.87;;
7215;SDS011;3649;48.798;9.798;2023-10-09T07:35:47;16.97;;;7.63;;
7215;SDS011;3649;48.798;9.798;2023-10-09T07:38:16;15.33;;;6.77;;
7215;SDS011;3649;48.798;9.798;2023-10-09T07:40:47;13.50;;;7.30;;
7215;SDS011;3649;48.798;9.798;2023-10-09T07:43:34;19.13;;;8.40;;
7215;SDS011;3649;48.798;9.798;2023-10-09T07:46:06;16.20;;;7.73;;
7215;SDS011;3649;48.798;9.798;2023-10-09T07:49:02;19.67;;;7.63;;
7215;SDS011;3649;48.798;9.798;2023-10-09T07:51:36;15.03;;;8.00;;
7215;SDS011;3649;48.798;9.798;2023-10-09T07:54:04;20.27;;;8.43;;
7215;SDS011;3649;48.798;9.798;2023-10-09T07:56:34;18.53;;;7.87;;
7215;SDS011;3649;48.798;9.798;2023-10-09T07:59:12;16.83;;;8.83;;
7215;SDS011;3649;48.798;9.798;2023-10-09T08:01:40;16.60;;;7.43;;
7215;SDS011;3649;48.798;9.798;2023-10-09T08:04:26;17.57;;;8.07;;
7215;SDS011;3649;48.798;9.798;2023-10-09T08:07:25;28.37;;;8.13;;
7215;SDS011;3649;48.798;9.798;2023-10-09T08:10:12;17.27;;;7.43;;
7215;SDS011;3649;48.798;9.798;2023-10-09T08:12:44;19.67;;;7.83;;
7215;SDS011;3649;48.798;9.798;2023-10-09T08:15:15;16.40;;;7.70;;
7215;SDS011;3649;48.798;9.798;2023-10-09T08:17:51;16.20;;;6.73;;
7215;SDS011;3649;48.798;9.798;2023-10-09T08:20:27;17.70;;;7.67;;
7215;SDS011;3649;48.798;9.798;2023-10-09T08:23:02;22.77;;;7.27;;
7215;SDS011;3649;48.798;9.798;2023-10-09T08:25:31;21.23;;;7.77;;
7215;SDS011;3649;48.798;9.798;2023-10-09T08:27:59;16.73;;;5.93;;
7215;SDS011;3649;48.798;9.798;2023-10-09T08:30:46;15.17;;;6.00;;
7215;SDS011;3649;48.798;9.798;2023-10-09T08:33:36;19.77;;;5.50;;
7215;SDS011;3649;48.798;9.798;2023-10-09T08:36:26;16.07;;;6.80;;
7215;SDS011;3649;48.798;9.798;2023-10-09T08:39:04;16.97;;;5.80;;
7215;SDS011;3649;48.798;9.798;2023-10-09T08:41:43;18.93;;;5.97;;
7215;SDS011;3649;48.798;9.798;2023-10-09T08:44:11;15.50;;;6.87;;
7215;SDS011;3649;48.798;9.798;2023-10-09T08:46:41;16.07;;;6.90;;
7215;SDS011;3649;48.798;9.798;2023-10-09T08:49:09;15.43;;;6.50;;
7215;SDS011;3649;48.798;9.798;2023-10-09T08:51:37;19.60;;;6.77;;
7215;SDS011;3649;48.798;9.798;2023-10-09T08:54:04;22.17;;;7.10;;
7215;SDS011;3649;48.798;9.798;2023-10-09T08:56:38;18.17;;;6.87;;
7215;SDS011;3649;48.798;9.798;2023-10-09T08:59:16;13.30;;;6.97;;
7215;SDS011;3649;48.798;9.798;2023-10-09T09:01:45;16.00;;;7.23;;
7215;SDS011;3649;48.798;9.798;2023-10-09T09:04:34;14.17;;;6.07;;
7215;SDS011;3649;48.798;9.798;2023-10-09T09:07:03;21.50;;;7.00;;
7215;SDS011;3649;48.798;9.798;2023-10-09T09:09:31;22.23;;;7.03;;
7215;SDS011;3649;48.798;9.798;2023-10-09T09:12:00;16.60;;;7.10;;
7215;SDS011;3649;48.798;9.798;2023-10-09T09:14:37;17.50;;;7.93;;
7215;SDS011;3649;48.798;9.798;2023-10-09T09:17:05;18.13;;;6.63;;
7215;SDS011;3649;48.798;9.798;2023-10-09T09:19:38;17.37;;;5.90;;
7215;SDS011;3649;48.798;9.798;2023-10-09T09:22:05;15.17;;;6.80;;
7215;SDS011;3649;48.798;9.798;2023-10-09T09:24:40;24.17;;;6.20;;
7215;SDS011;3649;48.798;9.798;2023-10-09T09:27:43;22.67;;;6.53;;
7215;SDS011;3649;48.798;9.798;2023-10-09T09:30:23;18.40;;;5.80;;
7215;SDS011;3649;48.798;9.798;2023-10-09T09:32:53;22.80;;;6.03;;
7215;SDS011;3649;48.798;9.798;2023-10-09T09:35:38;19.07;;;6.63;;
7215;SDS011;3649;48.798;9.798;2023-10-09T09:38:06;17.87;;;6.97;;
7215;SDS011;3649;48.798;9.798;2023-10-09T09:40:34;14.97;;;6.00;;
7215;SDS011;3649;48.798;9.798;2023-10-09T09:43:07;14.37;;;5.13;;
7215;SDS011;3649;48.798;9.798;2023-10-09T09:45:48;17.70;;;5.50;;
7215;SDS011;3649;48.798;9.798;2023-10-09T09:48:18;22.67;;;5.33;;
7215;SDS011;3649;48.798;9.798;2023-10-09T09:50:45;15.10;;;5.00;;
7215;SDS011;3649;48.798;9.798;2023-10-09T09:53:20;20.63;;;5.03;;
7215;SDS011;3649;48.798;9.798;2023-10-09T09:55:50;19.47;;;5.40;;
7215;SDS011;3649;48.798;9.798;2023-10-09T09:58:23;12.90;;;5.23;;
7215;SDS011;3649;48.798;9.798;2023-10-09T10:00:59;17.37;;;5.33;;
7215;SDS011;3649;48.798;9.798;2023-10-09T10:03:50;11.93;;;4.40;;
7215;SDS011;3649;48.798;9.798;2023-10-09T10:06:23;14.27;;;5.27;;
7215;SDS011;3649;48.798;9.798;2023-10-09T10:08:55;15.60;;;5.07;;
7215;SDS011;3649;48.798;9.798;2023-10-09T10:11:41;15.63;;;5.33;;
7215;SDS011;3649;48.798;9.798;2023-10-09T10:14:20;12.47;;;4.43;;
7215;SDS011;3649;48.798;9.798;2023-10-09T10:17:04;21.30;;;5.23;;
7215;SDS011;3649;48.798;9.798;2023-10-09T10:22:42;14.70;;;5.60;;
7215;SDS011;3649;48.798;9.798;2023-10-09T10:31:05;11.67;;;4.80;;
7215;SDS011;3649;48.798;9.798;2023-10-09T10:36:21;14.60;;;4.50;;
7215;SDS011;3649;48.798;9.798;2023-10-09T10:38:58;19.43;;;5.57;;
7215;SDS011;3649;48.798;9.798;2023-10-09T10:41:54;17.73;;;4.90;;
7215;SDS011;3649;48.798;9.798;2023-10-09T10:44:32;18.43;;;5.20;;
7215;SDS011;3649;48.798;9.798;2023-10-09T10:47:09;19.50;;;4.30;;
7215;SDS011;3649;48.798;9.798;2023-10-09T10:50:01;16.00;;;5.47;;
7215;SDS011;3649;48.798;9.798;2023-10-09T10:56:00;15.60;;;4.70;;
7215;SDS011;3649;48.798;9.798;2023-10-09T10:58:55;12.70;;;5.10;;
7215;SDS011;3649;48.798;9.798;2023-10-09T11:01:22;18.03;;;5.40;;
7215;SDS011;3649;48.798;9.798;2023-10-09T11:03:53;15.43;;;5.23;;
7215;SDS011;3649;48.798;9.798;2023-10-09T11:06:39;14.97;;;4.67;;
7215;SDS011;3649;48.798;9.798;2023-10-09T11:09:08;17.53;;;5.47;;
7215;SDS011;3649;48.798;9.798;2023-10-09T11:12:16;18.70;;;5.27;;
7215;SDS011;3649;48.798;9.798;2023-10-09T11:14:49;16.57;;;5.27;;
7215;SDS011;3649;48.798;9.798;2023-10-09T11:17:35;19.73;;;5.47;;
7215;SDS011;3649;48.798;9.798;2023-10-09T11:20:05;19.97;;;5.60;;
7215;SDS011;3649;48.798;9.798;2023-10-09T11:22:52;16.57;;;5.13;;
7215;SDS011;3649;48.798;9.798;2023-10-09T11:25:38;20.37;;;4.73;;
7215;SDS011;3649;48.798;9.798;2023-10-09T11:28:17;20.20;;;5.23;;
7215;SDS011;3649;48.798;9.798;2023-10-09T11:31:10;11.20;;;4.57;;
7215;SDS011;3649;48.798;9.798;2023-10-09T11:36:12;16.97;;;5.23;;
7215;SDS011;3649;48.798;9.798;2023-10-09T11:38:39;17.37;;;5.33;;
7215;SDS011;3649;48.798;9.798;2023-10-09T11:41:15;14.93;;;4.73;;
7215;SDS011;3649;48.798;9.798;2023-10-09T11:43:52;19.67;;;5.70;;
7215;SDS011;3649;48.798;9.798;2023-10-09T11:46:21;15.73;;;4.90;;
7215;SDS011;3649;48.798;9.798;2023-10-09T11:49:08;18.50;;;5.73;;
7215;SDS011;3649;48.798;9.798;2023-10-09T11:51:52;17.03;;;4.97;;
7215;SDS011;3649;48.798;9.798;2023-10-09T11:54:40;19.03;;;5.50;;
7215;SDS011;3649;48.798;9.798;2023-10-09T11:57:07;17.00;;;4.93;;
7215;SDS011;3649;48.798;9.798;2023-10-09T11:59:34;21.83;;;5.77;;
7215;SDS011;3649;48.798;9.798;2023-10-09T12:02:07;17.43;;;4.60;;
7215;SDS011;3649;48.798;9.798;2023-10-09T12:04:39;16.13;;;4.60;;
7215;SDS011;3649;48.798;9.798;2023-10-09T12:07:12;21.17;;;5.00;;
7215;SDS011;3649;48.798;9.798;2023-10-09T12:09:39;14.73;;;4.67;;
7215;SDS011;3649;48.798;9.798;2023-10-09T12:12:08;18.13;;;5.17;;
7215;SDS011;3649;48.798;9.798;2023-10-09T12:14:37;16.37;;;4.70;;
7215;SDS011;3649;48.798;9.798;2023-10-09T12:17:06;17.33;;;5.37;;
7215;SDS011;3649;48.798;9.798;2023-10-09T12:19:35;12.73;;;4.17;;
7215;SDS011;3649;48.798;9.798;2023-10-09T12:22:04;16.73;;;4.57;;
7215;SDS011;3649;48.798;9.798;2023-10-09T12:24:33;14.90;;;5.07;;
7215;SDS011;3649;48.798;9.798;2023-10-09T12:27:00;20.40;;;6.13;;
7215;SDS011;3649;48.798;9.798;2023-10-09T12:29:27;25.97;;;6.43;;
7215;SDS011;3649;48.798;9.798;2023-10-09T12:31:56;16.07;;;5.37;;
7215;SDS011;3649;48.798;9.798;2023-10-09T12:34:26;21.60;;;6.73;;
7215;SDS011;3649;48.798;9.798;2023-10-09T12:36:53;25.43;;;6.63;;
7215;SDS011;3649;48.798;9.798;2023-10-09T12:39:21;17.87;;;6.43;;
7215;SDS011;3649;48.798;9.798;2023-10-09T12:41:48;22.70;;;6.23;;
7215;SDS011;3649;48.798;9.798;2023-10-09T12:44:19;17.17;;;6.50;;
7215;SDS011;3649;48.798;9.798;2023-10-09T12:46:46;21.07;;;5.97;;
7215;SDS011;3649;48.798;9.798;2023-10-09T12:49:20;15.90;;;5.20;;
7215;SDS011;3649;48.798;9.798;2023-10-09T12:51:52;18.97;;;6.27;;
7215;SDS011;3649;48.798;9.798;2023-10-09T12:54:19;24.90;;;5.40;;
7215;SDS011;3649;48.798;9.798;2023-10-09T12:56:46;18.10;;;5.60;;
7215;SDS011;3649;48.798;9.798;2023-10-09T12:59:16;23.33;;;6.33;;
7215;SDS011;3649;48.798;9.798;2023-10-09T13:01:46;23.07;;;6.20;;
7215;SDS011;3649;48.798;9.798;2023-10-09T13:04:18;37.40;;;10.27;;
7215;SDS011;3649;48.798;9.798;2023-10-09T13:06:49;27.93;;;8.17;;
7215;SDS011;3649;48.798;9.798;2023-10-09T13:09:20;35.70;;;9.20;;
7215;SDS011;3649;48.798;9.798;2023-10-09T13:12:11;14.73;;;5.33;;
7215;SDS011;3649;48.798;9.798;2023-10-09T13:14:45;19.67;;;5.33;;
7215;SDS011;3649;48.798;9.798;2023-10-09T13:17:13;22.83;;;6.00;;
7215;SDS011;3649;48.798;9.798;2023-10-09T13:19:40;18.33;;;5.67;;
7215;SDS011;3649;48.798;9.798;2023-10-09T13:22:10;13.50;;;4.80;;
7215;SDS011;3649;48.798;9.798;2023-10-09T13:24:40;16.23;;;5.70;;
7215;SDS011;3649;48.798;9.798;2023-10-09T13:27:08;18.43;;;4.83;;
7215;SDS011;3649;48.798;9.798;2023-10-09T13:29:37;19.97;;;4.97;;
7215;SDS011;3649;48.798;9.798;2023-10-09T13:32:06;17.37;;;5.23;;
7215;SDS011;3649;48.798;9.798;2023-10-09T13:34:41;16.87;;;5.27;;
7215;SDS011;3649;48.798;9.798;2023-10-09T13:37:11;18.87;;;5.10;;
7215;SDS011;3649;48.798;9.798;2023-10-09T13:39:48;13.23;;;4.90;;
7215;SDS011;3649;48.798;9.798;2023-10-09T13:42:22;22.27;;;5.47;;
7215;SDS011;3649;48.798;9.798;2023-10-09T13:44:52;18.03;;;4.87;;
7215;SDS011;3649;48.798;9.798;2023-10-09T13:47:20;18.67;;;4.70;;
7215;SDS011;3649;48.798;9.798;2023-10-09T13:49:47;15.10;;;4.73;;
7215;SDS011;3649;48.798;9.798;2023-10-09T13:52:20;18.07;;;5.90;;
7215;SDS011;3649;48.798;9.798;2023-10-09T13:54:48;19.33;;;5.97;;
7215;SDS011;3649;48.798;9.798;2023-10-09T13:57:19;25.23;;;4.70;;
7215;SDS011;3649;48.798;9.798;2023-10-09T13:59:48;23.07;;;4.97;;
7215;SDS011;3649;48.798;9.798;2023-10-09T14:02:16;20.10;;;5.40;;
7215;SDS011;3649;48.798;9.798;2023-10-09T14:04:47;23.37;;;5.40;;
7215;SDS011;3649;48.798;9.798;2023-10-09T14:07:14;21.60;;;6.00;;
7215;SDS011;3649;48.798;9.798;2023-10-09T14:09:46;18.93;;;6.07;;
7215;SDS011;3649;48.798;9.798;2023-10-09T14:12:33;17.77;;;6.17;;
7215;SDS011;3649;48.798;9.798;2023-10-09T14:15:06;17.27;;;5.20;;
7215;SDS011;3649;48.798;9.798;2023-10-09T14:17:37;19.83;;;5.20;;
7215;SDS011;3649;48.798;9.798;2023-10-09T14:20:09;18.57;;;5.60;;
7215;SDS011;3649;48.798;9.798;2023-10-09T14:22:54;16.83;;;5.23;;
7215;SDS011;3649;48.798;9.798;2023-10-09T14:25:21;19.43;;;6.23;;
7215;SDS011;3649;48.798;9.798;2023-10-09T14:27:49;16.13;;;6.00;;
7215;SDS011;3649;48.798;9.798;2023-10-09T14:30:19;13.27;;;4.77;;
7215;SDS011;3649;48.798;9.798;2023-10-09T14:32:57;18.43;;;5.60;;
7215;SDS011;3649;48.798;9.798;2023-10-09T14:35:24;20.80;;;5.60;;
7215;SDS011;3649;48.798;9.798;2023-10-09T14:37:56;23.73;;;6.37;;
7215;SDS011;3649;48.798;9.798;2023-10-09T14:40:24;19.70;;;5.97;;
7215;SDS011;3649;48.798;9.798;2023-10-09T14:43:00;19.13;;;6.20;;
7215;SDS011;3649;48.798;9.798;2023-10-09T14:45:27;23.00;;;6.73;;
7215;SDS011;3649;48.798;9.798;2023-10-09T14:47:54;14.90;;;5.90;;
7215;SDS011;3649;48.798;9.798;2023-10-09T14:50:21;27.90;;;7.53;;
7215;SDS011;3649;48.798;9.798;2023-10-09T14:52:49;19.57;;;6.40;;
7215;SDS011;3649;48.798;9.798;2023-10-09T14:55:17;18.03;;;7.43;;
7215;SDS011;3649;48.798;9.798;2023-10-09T14:57:48;20.93;;;6.10;;
7215;SDS011;3649;48.798;9.798;2023-10-09T15:00:19;20.50;;;6.23;;
7215;SDS011;3649;48.798;9.798;2023-10-09T15:02:49;20.70;;;6.27;;
7215;SDS011;3649;48.798;9.798;2023-10-09T15:05:18;24.60;;;6.13;;
7215;SDS011;3649;48.798;9.798;2023-10-09T15:07:45;20.83;;;6.50;;
7215;SDS011;3649;48.798;9.798;2023-10-09T15:10:13;21.17;;;7.00;;
7215;SDS011;3649;48.798;9.798;2023-10-09T15:12:44;22.50;;;6.23;;
7215;SDS011;3649;48.798;9.798;2023-10-09T15:15:15;16.23;;;5.63;;
7215;SDS011;3649;48.798;9.798;2023-10-09T15:17:43;27.00;;;7.60;;
7215;SDS011;3649;48.798;9.798;2023-10-09T15:20:13;24.17;;;6.07;;
7215;SDS011;3649;48.798;9.798;2023-10-09T15:22:41;19.83;;;8.17;;
7215;SDS011;3649;48.798;9.798;2023-10-09T15:25:09;24.03;;;8.60;;
7215;SDS011;3649;48.798;9.798;2023-10-09T15:27:41;18.70;;;7.80;;
7215;SDS011;3649;48.798;9.798;2023-10-09T15:30:10;22.57;;;8.43;;
7215;SDS011;3649;48.798;9.798;2023-10-09T15:32:40;19.93;;;8.43;;
7215;SDS011;3649;48.798;9.798;2023-10-09T15:35:08;17.47;;;8.03;;
7215;SDS011;3649;48.798;9.798;2023-10-09T15:37:36;28.33;;;9.13;;
7215;SDS011;3649;48.798;9.798;2023-10-09T15:40:04;24.63;;;9.20;;
7215;SDS011;3649;48.798;9.798;2023-10-09T15:42:32;27.57;;;8.60;;
7215;SDS011;3649;48.798;9.798;2023-10-09T15:45:02;25.10;;;9.33;;
7215;SDS011;3649;48.798;9.798;2023-10-09T15:47:33;25.23;;;9.03;;
7215;SDS011;3649;48.798;9.798;2023-10-09T15:50:03;27.37;;;8.80;;
7215;SDS011;3649;48.798;9.798;2023-10-09T15:52:30;20.10;;;9.27;;
7215;SDS011;3649;48.798;9.798;2023-10-09T15:54:57;19.37;;;9.83;;
7215;SDS011;3649;48.798;9.798;2023-10-09T15:57:24;25.23;;;10.20;;
7215;SDS011;3649;48.798;9.798;2023-10-09T15:59:51;21.27;;;10.27;;
7215;SDS011;3649;48.798;9.798;2023-10-09T16:02:18;24.00;;;10.73;;
7215;SDS011;3649;48.798;9.798;2023-10-09T16:04:45;23.93;;;9.80;;
7215;SDS011;3649;48.798;9.798;2023-10-09T16:07:12;28.97;;;10.13;;
7215;SDS011;3649;48.798;9.798;2023-10-09T16:09:40;27.27;;;11.13;;
7215;SDS011;3649;48.798;9.798;2023-10-09T16:12:07;20.90;;;8.93;;
7215;SDS011;3649;48.798;9.798;2023-10-09T16:14:35;23.30;;;9.30;;